createdAt,value
2018-05-17T00:01:06.713Z,5.67
2018-05-17T00:03:34.192Z,5.03
2018-05-17T00:06:02.452Z,6.90
2018-05-17T00:08:29.927Z,4.73
2018-05-17T00:10:58.196Z,5.00
2018-05-17T00:13:26.439Z,5.60
2018-05-17T00:15:54.028Z,5.27
2018-05-17T00:18:22.268Z,4.63
2018-05-17T00:20:50.231Z,5.93
2018-05-17T00:23:17.955Z,5.83
2018-05-17T00:25:45.432Z,5.83
2018-05-17T00:28:12.923Z,6.37
2018-05-17T00:30:40.512Z,5.83
2018-05-17T00:33:08.780Z,7.33
2018-05-17T00:35:36.352Z,8.73
2018-05-17T00:38:03.903Z,5.73
2018-05-17T00:40:32.159Z,7.20
2018-05-17T00:42:59.640Z,5.67
2018-05-17T00:45:27.901Z,6.47
2018-05-17T00:47:57.011Z,7.13
2018-05-17T00:50:25.267Z,5.60
2018-05-17T00:53:06.080Z,4.57
2018-05-17T00:55:33.612Z,5.07
2018-05-17T00:58:02.858Z,6.73
2018-05-17T01:00:31.985Z,6.07
2018-05-17T01:02:59.716Z,6.77
2018-05-17T01:05:27.480Z,6.87
2018-05-17T01:07:55.243Z,7.40
2018-05-17T01:10:22.757Z,7.27
2018-05-17T01:12:51.040Z,9.40
2018-05-17T01:15:19.379Z,8.60
2018-05-17T01:17:46.856Z,9.20
2018-05-17T01:20:14.352Z,9.80
2018-05-17T01:22:41.827Z,8.53
2018-05-17T01:25:09.345Z,8.50
2018-05-17T01:27:37.619Z,9.20
2018-05-17T01:30:06.140Z,8.30
2018-05-17T01:32:33.656Z,9.60
2018-05-17T01:35:02.196Z,10.57
2018-05-17T01:37:42.500Z,9.63
2018-05-17T01:40:11.020Z,11.80
2018-05-17T01:42:38.788Z,12.47
2018-05-17T01:45:06.271Z,10.03
2018-05-17T01:47:33.859Z,9.23
2018-05-17T01:50:02.109Z,11.47
2018-05-17T01:52:29.613Z,10.00
2018-05-17T01:54:57.099Z,11.20
2018-05-17T01:57:24.587Z,9.73
2018-05-17T01:59:52.091Z,11.80
2018-05-17T02:02:19.872Z,10.53
2018-05-17T02:04:47.372Z,9.80
2018-05-17T02:07:14.852Z,9.53
2018-05-17T02:09:43.095Z,9.87
2018-05-17T02:12:11.395Z,8.10
2018-05-17T02:14:39.919Z,10.13
2018-05-17T02:17:07.435Z,9.53
2018-05-17T02:19:35.680Z,11.53
2018-05-17T02:22:03.182Z,10.50
2018-05-17T02:24:31.431Z,10.63
2018-05-17T02:26:59.251Z,9.60
2018-05-17T02:29:26.770Z,10.90
2018-05-17T02:31:55.048Z,10.67
2018-05-17T02:34:23.312Z,11.97
2018-05-17T02:36:50.796Z,10.00
2018-05-17T02:39:18.336Z,9.03
2018-05-17T02:41:46.712Z,9.37
2018-05-17T02:44:14.964Z,9.50
2018-05-17T02:46:42.463Z,12.43
2018-05-17T02:49:10.264Z,11.70
2018-05-17T02:51:37.764Z,9.67
2018-05-17T02:54:05.268Z,10.77
2018-05-17T02:56:32.780Z,10.93
2018-05-17T02:59:01.032Z,10.70
2018-05-17T03:01:29.283Z,10.87
2018-05-17T03:03:57.045Z,10.60
2018-05-17T03:06:24.524Z,10.73
2018-05-17T03:08:52.020Z,11.33
2018-05-17T03:11:20.268Z,10.97
2018-05-17T03:13:47.775Z,10.33
2018-05-17T03:16:15.309Z,12.20
2018-05-17T03:18:43.586Z,11.57
2018-05-17T03:21:11.851Z,10.83
2018-05-17T03:23:40.099Z,10.47
2018-05-17T03:26:07.839Z,12.30
2018-05-17T03:28:35.609Z,11.23
2018-05-17T03:31:03.112Z,11.10
2018-05-17T03:33:30.628Z,12.93
2018-05-17T03:35:58.128Z,11.80
2018-05-17T03:38:26.656Z,11.50
2018-05-17T03:40:54.423Z,12.80
2018-05-17T03:43:21.923Z,10.73
2018-05-17T03:45:49.408Z,10.60
2018-05-17T03:48:16.919Z,10.30
2018-05-17T03:50:44.547Z,10.90
2018-05-17T03:53:12.067Z,9.50
2018-05-17T03:55:40.339Z,13.20
2018-05-17T03:58:07.824Z,12.40
2018-05-17T04:00:47.240Z,11.87
2018-05-17T04:03:27.548Z,9.87
2018-05-17T04:06:07.015Z,11.20
2018-05-17T04:08:35.473Z,10.93
2018-05-17T04:11:02.876Z,11.10
2018-05-17T04:13:31.395Z,10.77
2018-05-17T04:15:59.164Z,10.70
2018-05-17T04:18:26.684Z,11.23
2018-05-17T04:20:54.948Z,11.83
2018-05-17T04:23:23.224Z,12.90
2018-05-17T04:25:51.752Z,11.80
2018-05-17T04:28:19.252Z,11.87
2018-05-17T04:30:47.068Z,9.50
2018-05-17T04:33:14.832Z,10.93
2018-05-17T04:35:43.322Z,8.60
2018-05-17T04:38:12.388Z,10.90
2018-05-17T04:40:40.180Z,12.27
2018-05-17T04:43:07.811Z,10.80
2018-05-17T04:45:36.056Z,11.03
2018-05-17T04:48:03.536Z,12.33
2018-05-17T04:50:32.388Z,12.63
2018-05-17T04:52:59.871Z,13.27
2018-05-17T04:55:28.499Z,12.17
2018-05-17T04:57:56.432Z,14.37
2018-05-17T05:00:23.940Z,13.53
2018-05-17T05:02:51.444Z,13.40
2018-05-17T05:05:18.940Z,11.70
2018-05-17T05:07:46.421Z,13.73
2018-05-17T05:10:13.910Z,11.87
2018-05-17T05:12:42.851Z,12.07
2018-05-17T05:15:10.613Z,12.47
2018-05-17T05:17:38.380Z,11.40
2018-05-17T05:20:05.863Z,12.60
2018-05-17T05:22:33.349Z,10.90
2018-05-17T05:25:01.630Z,11.10
2018-05-17T05:27:29.879Z,10.50
2018-05-17T05:29:58.152Z,9.97
2018-05-17T05:32:25.636Z,11.07
2018-05-17T05:34:53.883Z,10.03
2018-05-17T05:37:21.384Z,12.87
2018-05-17T05:39:48.863Z,10.70
2018-05-17T05:42:16.588Z,10.20
2018-05-17T05:44:44.864Z,9.03
2018-05-17T05:47:13.481Z,9.30
2018-05-17T05:49:40.999Z,8.93
2018-05-17T05:52:08.811Z,11.00
2018-05-17T05:54:36.315Z,9.70
2018-05-17T05:57:04.041Z,11.90
2018-05-17T05:59:35.341Z,10.97
2018-05-17T06:02:04.591Z,9.30
2018-05-17T06:04:41.066Z,10.93
2018-05-17T06:07:11.520Z,9.63
2018-05-17T06:09:39.194Z,10.03
2018-05-17T06:12:09.647Z,9.30
2018-05-17T06:14:40.406Z,9.27
2018-05-17T06:17:09.139Z,9.03
2018-05-17T06:19:37.383Z,7.93
2018-05-17T06:22:04.864Z,10.17
2018-05-17T06:24:33.481Z,9.90
2018-05-17T06:27:01.269Z,10.50
2018-05-17T06:29:29.235Z,9.63
2018-05-17T06:31:58.083Z,10.97
2018-05-17T06:34:27.543Z,8.83
2018-05-17T06:36:55.802Z,9.87
2018-05-17T06:39:23.424Z,11.07
2018-05-17T06:41:52.352Z,10.60
2018-05-17T06:44:20.524Z,9.30
2018-05-17T06:46:54.390Z,11.43
2018-05-17T06:49:26.570Z,10.23
2018-05-17T06:51:55.431Z,11.57
2018-05-17T06:54:26.644Z,9.27
2018-05-17T06:56:55.490Z,11.00
2018-05-17T06:59:24.418Z,11.53
2018-05-17T07:02:01.303Z,9.47
2018-05-17T07:04:35.055Z,10.30
2018-05-17T07:07:05.694Z,10.47
2018-05-17T07:09:37.301Z,9.33
2018-05-17T07:12:12.359Z,10.53
2018-05-17T07:14:46.063Z,11.33
2018-05-17T07:17:16.960Z,10.13
2018-05-17T07:19:46.656Z,10.50
2018-05-17T07:22:15.184Z,11.50
2018-05-17T07:24:43.678Z,12.30
2018-05-17T07:27:16.771Z,11.33
2018-05-17T07:29:49.533Z,10.50
2018-05-17T07:32:21.936Z,11.97
2018-05-17T07:34:53.435Z,11.40
2018-05-17T07:37:26.627Z,11.57
2018-05-17T07:39:57.871Z,12.73
2018-05-17T07:42:25.352Z,10.70
2018-05-17T07:44:54.032Z,10.73
2018-05-17T07:47:21.543Z,10.13
2018-05-17T07:49:50.451Z,10.13
2018-05-17T07:52:18.216Z,12.00
2018-05-17T07:54:45.701Z,10.77
2018-05-17T07:57:13.927Z,13.10
2018-05-17T07:59:44.335Z,11.80
2018-05-17T08:02:12.952Z,8.80
2018-05-17T08:04:40.451Z,10.53
2018-05-17T08:07:07.927Z,9.93
2018-05-17T08:09:36.211Z,9.47
2018-05-17T08:12:04.734Z,10.87
2018-05-17T08:14:32.250Z,9.97
2018-05-17T08:17:00.515Z,8.80
2018-05-17T08:19:27.995Z,11.00
2018-05-17T08:21:55.784Z,9.53
2018-05-17T08:24:23.282Z,9.60
2018-05-17T08:26:51.531Z,10.00
2018-05-17T08:29:19.135Z,8.93
2018-05-17T08:31:47.416Z,9.60
2018-05-17T08:34:16.095Z,9.50
2018-05-17T08:36:44.465Z,8.67
2018-05-17T08:39:11.843Z,8.13
2018-05-17T08:41:39.344Z,9.17
2018-05-17T08:44:06.824Z,9.57
2018-05-17T08:46:34.311Z,10.07
2018-05-17T08:49:01.812Z,8.30
2018-05-17T08:51:29.535Z,9.07
2018-05-17T08:53:58.016Z,9.80
2018-05-17T08:56:26.264Z,11.30
2018-05-17T08:58:53.748Z,10.13
2018-05-17T09:01:22.379Z,11.50
2018-05-17T09:03:49.860Z,10.30
2018-05-17T09:06:17.721Z,10.53
2018-05-17T09:08:45.208Z,12.30
2018-05-17T09:11:13.940Z,14.07
2018-05-17T09:13:41.447Z,9.83
2018-05-17T09:16:10.136Z,8.17
2018-05-17T09:18:38.920Z,10.27
2018-05-17T09:21:07.531Z,9.10
2018-05-17T09:23:36.395Z,10.97
2018-05-17T09:26:05.033Z,10.47
2018-05-17T09:28:32.739Z,10.60
2018-05-17T09:31:01.424Z,10.67
2018-05-17T09:33:29.951Z,9.17
2018-05-17T09:35:57.502Z,10.20
2018-05-17T09:38:24.999Z,10.57
2018-05-17T09:40:53.303Z,11.73
2018-05-17T09:43:20.763Z,10.67
2018-05-17T09:45:49.016Z,10.90
2018-05-17T09:48:18.004Z,10.27
2018-05-17T09:50:45.584Z,9.87
2018-05-17T09:53:13.866Z,10.77
2018-05-17T09:55:42.136Z,9.30
2018-05-17T09:58:10.383Z,9.57
2018-05-17T10:00:47.163Z,12.97
2018-05-17T10:03:17.760Z,10.50
2018-05-17T10:05:49.658Z,10.27
2018-05-17T10:08:24.843Z,8.20
2018-05-17T10:10:57.098Z,10.67
2018-05-17T10:13:25.983Z,10.50
2018-05-17T10:15:54.251Z,13.27
2018-05-17T10:18:22.881Z,12.13
2018-05-17T10:20:50.391Z,11.03
2018-05-17T10:23:19.032Z,11.53
2018-05-17T10:25:46.516Z,12.27
2018-05-17T10:28:14.095Z,10.57
2018-05-17T10:30:42.728Z,10.13
2018-05-17T10:33:10.212Z,10.33
2018-05-17T10:35:37.715Z,11.10
2018-05-17T10:38:05.504Z,11.50
2018-05-17T10:40:37.268Z,13.03
2018-05-17T10:43:04.755Z,11.83
2018-05-17T10:45:32.243Z,11.43
2018-05-17T10:48:00.608Z,12.33
2018-05-17T10:50:29.295Z,10.30
2018-05-17T10:52:57.563Z,10.70
2018-05-17T10:55:25.050Z,11.50
2018-05-17T10:57:52.643Z,11.67
2018-05-17T11:00:20.394Z,9.80
2018-05-17T11:02:47.887Z,9.70
2018-05-17T11:05:16.372Z,9.30
2018-05-17T11:07:43.949Z,10.37
2018-05-17T11:10:14.092Z,10.33
2018-05-17T11:12:41.583Z,9.00
2018-05-17T11:15:09.081Z,10.00
2018-05-17T11:17:37.343Z,9.70
2018-05-17T11:20:08.855Z,9.50
2018-05-17T11:22:36.615Z,9.40
2018-05-17T11:25:04.135Z,9.23
2018-05-17T11:27:32.753Z,10.03
2018-05-17T11:30:02.525Z,10.17
2018-05-17T11:32:31.866Z,7.90
2018-05-17T11:35:01.747Z,9.47
2018-05-17T11:37:30.391Z,9.77
2018-05-17T11:39:57.872Z,9.63
2018-05-17T11:42:28.075Z,9.77
2018-05-17T11:44:58.714Z,10.20
2018-05-17T11:47:29.931Z,7.60
2018-05-17T11:50:02.467Z,10.37
2018-05-17T11:52:31.943Z,8.33
2018-05-17T11:55:01.727Z,10.57
2018-05-17T11:57:30.171Z,9.43
2018-05-17T11:59:58.915Z,7.43
2018-05-17T12:02:31.736Z,9.17
2018-05-17T12:05:03.627Z,7.33
2018-05-17T12:07:41.690Z,8.93
2018-05-17T12:10:14.187Z,9.33
2018-05-17T12:12:50.322Z,10.33
2018-05-17T12:15:22.746Z,8.43
2018-05-17T12:17:55.327Z,11.30
2018-05-17T12:20:31.632Z,9.70
2018-05-17T12:23:04.243Z,9.10
2018-05-17T12:25:42.765Z,9.23
2018-05-17T12:28:15.103Z,9.87
2018-05-17T12:30:46.902Z,9.30
2018-05-17T12:33:21.591Z,10.73
2018-05-17T12:35:50.939Z,9.70
2018-05-17T12:38:19.368Z,9.90
2018-05-17T12:40:48.302Z,9.67
2018-05-17T12:43:20.811Z,10.70
2018-05-17T12:45:48.286Z,7.60
2018-05-17T12:48:16.568Z,10.07
2018-05-17T12:50:44.913Z,10.03
2018-05-17T12:53:12.404Z,7.87
2018-05-17T12:55:40.668Z,8.50
2018-05-17T12:58:08.151Z,9.20
2018-05-17T13:00:35.653Z,8.80
2018-05-17T13:03:03.131Z,9.10
2018-05-17T13:05:30.615Z,10.80
2018-05-17T13:07:59.099Z,8.70
2018-05-17T13:10:27.346Z,7.03
2018-05-17T13:12:55.174Z,8.07
2018-05-17T13:15:22.931Z,7.63
2018-05-17T13:17:50.452Z,7.87
2018-05-17T13:20:18.723Z,8.00
2018-05-17T13:22:47.328Z,7.80
2018-05-17T13:25:15.011Z,8.90
2018-05-17T13:27:42.528Z,8.60
2018-05-17T13:30:10.814Z,9.07
2018-05-17T13:32:38.288Z,8.37
2018-05-17T13:35:06.071Z,6.87
2018-05-17T13:37:33.684Z,8.47
2018-05-17T13:40:01.924Z,8.27
2018-05-17T13:42:29.420Z,8.97
2018-05-17T13:44:57.683Z,7.40
2018-05-17T13:47:25.400Z,7.23
2018-05-17T13:49:52.895Z,7.23
2018-05-17T13:52:20.363Z,8.20
2018-05-17T13:54:47.928Z,8.00
2018-05-17T13:57:16.202Z,8.13
2018-05-17T13:59:44.453Z,8.27
2018-05-17T14:02:12.194Z,7.90
2018-05-17T14:04:39.676Z,8.53
2018-05-17T14:07:07.156Z,8.60
2018-05-17T14:09:35.435Z,6.63
2018-05-17T14:12:02.907Z,6.97
2018-05-17T14:14:30.708Z,6.50
2018-05-17T14:16:58.191Z,7.30
2018-05-17T14:19:27.176Z,6.80
2018-05-17T14:21:54.672Z,7.30
2018-05-17T14:24:22.171Z,8.40
2018-05-17T14:26:49.677Z,9.00
2018-05-17T14:29:17.921Z,6.03
2018-05-17T14:31:45.505Z,7.90
2018-05-17T14:34:12.920Z,7.13
2018-05-17T14:36:40.403Z,6.67
2018-05-17T14:39:07.896Z,7.03
2018-05-17T14:41:36.408Z,6.20
2018-05-17T14:44:03.925Z,7.20
2018-05-17T14:46:32.199Z,6.70
2018-05-17T14:49:00.443Z,6.63
2018-05-17T14:51:27.944Z,7.20
2018-05-17T14:53:56.205Z,5.90
2018-05-17T14:56:24.446Z,5.87
2018-05-17T14:58:51.941Z,6.47
2018-05-17T15:01:20.257Z,5.83
2018-05-17T15:03:47.708Z,5.73
2018-05-17T15:06:15.183Z,5.67
2018-05-17T15:08:42.717Z,6.83
2018-05-17T15:11:14.746Z,4.70
2018-05-17T15:13:37.915Z,6.03
2018-05-17T15:16:06.431Z,6.30
2018-05-17T15:18:33.907Z,4.10
2018-05-17T15:21:01.660Z,4.80
2018-05-17T15:23:29.168Z,4.50
2018-05-17T15:25:57.412Z,5.90
2018-05-17T15:28:24.908Z,4.07
2018-05-17T15:30:53.185Z,5.47
2018-05-17T15:33:21.427Z,5.80
2018-05-17T15:35:48.922Z,4.60
2018-05-17T15:38:16.408Z,5.20
2018-05-17T15:40:43.903Z,4.50
2018-05-17T15:43:11.380Z,3.97
2018-05-17T15:45:39.092Z,4.20
2018-05-17T15:48:06.612Z,4.13
2018-05-17T15:50:35.296Z,4.03
2018-05-17T15:53:03.668Z,3.60
2018-05-17T15:55:31.952Z,4.67
2018-05-17T15:58:00.195Z,3.90
2018-05-17T16:00:27.687Z,3.53
2018-05-17T16:02:55.933Z,3.03
2018-05-17T16:05:23.431Z,3.47
2018-05-17T16:07:50.907Z,3.40
2018-05-17T16:10:19.584Z,3.93
2018-05-17T16:12:47.455Z,3.57
2018-05-17T16:15:15.119Z,3.10
2018-05-17T16:17:42.432Z,3.33
2018-05-17T16:20:10.687Z,3.60
2018-05-17T16:22:38.268Z,3.40
2018-05-17T16:25:06.528Z,3.57
2018-05-17T16:27:34.013Z,3.27
2018-05-17T16:30:02.288Z,4.40
2018-05-17T16:32:30.803Z,3.73
2018-05-17T16:34:58.286Z,4.03
2018-05-17T16:37:25.781Z,2.57
2018-05-17T16:39:55.509Z,3.50
2018-05-17T16:42:23.036Z,4.30
2018-05-17T16:44:51.686Z,3.50
2018-05-17T16:47:19.321Z,3.17
2018-05-17T16:49:46.864Z,3.30
2018-05-17T16:52:14.340Z,2.80
2018-05-17T16:54:41.876Z,3.13
2018-05-17T16:57:10.121Z,3.20
2018-05-17T16:59:38.365Z,4.10
2018-05-17T17:02:05.859Z,2.40
2018-05-17T17:04:33.427Z,2.70
2018-05-17T17:07:01.706Z,3.57
2018-05-17T17:09:29.963Z,2.80
2018-05-17T17:11:57.485Z,2.87
2018-05-17T17:14:25.016Z,3.23
2018-05-17T17:16:52.503Z,4.50
2018-05-17T17:19:19.995Z,3.00
2018-05-17T17:21:47.496Z,2.70
2018-05-17T17:24:14.976Z,3.00
2018-05-17T17:26:42.472Z,3.00
2018-05-17T17:29:09.958Z,3.73
2018-05-17T17:31:37.523Z,3.20
2018-05-17T17:34:05.005Z,3.10
2018-05-17T17:36:32.784Z,2.77
2018-05-17T17:39:00.280Z,2.70
2018-05-17T17:41:29.212Z,3.63
2018-05-17T17:43:57.185Z,3.27
2018-05-17T17:46:24.687Z,3.60
2018-05-17T17:48:52.255Z,3.83
2018-05-17T17:51:20.779Z,3.27
2018-05-17T17:53:53.378Z,3.43
2018-05-17T17:56:23.219Z,2.97
2018-05-17T17:58:52.405Z,4.67
2018-05-17T18:01:20.131Z,3.57
2018-05-17T18:03:47.624Z,3.97
2018-05-17T18:06:15.097Z,4.40
2018-05-17T18:08:42.593Z,5.60
2018-05-17T18:11:11.260Z,3.53
2018-05-17T18:13:44.150Z,4.63
2018-05-17T18:16:12.976Z,5.90
2018-05-17T18:18:45.191Z,6.20
2018-05-17T18:21:19.506Z,6.20
2018-05-17T18:23:56.482Z,4.43
2018-05-17T18:26:35.211Z,3.00
2018-05-17T18:29:04.059Z,4.73
2018-05-17T18:31:33.830Z,6.90
2018-05-17T18:34:02.654Z,4.00
2018-05-17T18:36:31.555Z,3.83
2018-05-17T18:39:04.591Z,3.80
2018-05-17T18:41:33.472Z,4.07
2018-05-17T18:44:10.015Z,4.33
2018-05-17T18:46:49.813Z,3.13
2018-05-17T18:49:25.467Z,4.30
2018-05-17T18:51:57.167Z,3.60
2018-05-17T18:54:28.189Z,3.67
2018-05-17T18:57:03.489Z,3.83
2018-05-17T18:59:49.323Z,3.67
2018-05-17T19:02:18.482Z,3.57
2018-05-17T19:04:47.243Z,3.40
2018-05-17T19:07:16.067Z,4.23
2018-05-17T19:09:47.822Z,4.47
2018-05-17T19:12:20.867Z,5.43
2018-05-17T19:14:52.376Z,3.80
2018-05-17T19:17:26.114Z,4.60
2018-05-17T19:20:02.323Z,4.40
2018-05-17T19:22:41.178Z,3.73
2018-05-17T19:25:18.272Z,5.13
2018-05-17T19:27:52.039Z,5.33
2018-05-17T19:30:23.294Z,4.87
2018-05-17T19:32:59.040Z,5.30
2018-05-17T19:35:29.902Z,4.67
2018-05-17T19:37:58.741Z,5.57
2018-05-17T19:40:27.934Z,5.27
2018-05-17T19:42:56.791Z,6.30
2018-05-17T19:45:29.347Z,5.60
2018-05-17T19:48:00.274Z,5.40
2018-05-17T19:50:37.134Z,4.67
2018-05-17T19:53:05.984Z,4.20
2018-05-17T19:55:39.015Z,4.20
2018-05-17T19:58:09.984Z,4.53
2018-05-17T20:00:45.031Z,4.83
2018-05-17T20:03:20.386Z,4.47
2018-05-17T20:05:50.885Z,5.33
2018-05-17T20:08:23.506Z,3.47
2018-05-17T20:10:56.331Z,4.50
2018-05-17T20:13:28.551Z,4.47
2018-05-17T20:16:01.852Z,5.93
2018-05-17T20:18:30.695Z,4.80
2018-05-17T20:21:07.599Z,4.40
2018-05-17T20:23:38.616Z,5.17
2018-05-17T20:26:18.914Z,3.73
2018-05-17T20:28:48.055Z,3.83
2018-05-17T20:31:16.878Z,4.40
2018-05-17T20:33:45.698Z,5.13
2018-05-17T20:36:14.535Z,4.60
2018-05-17T20:38:43.361Z,4.90
2018-05-17T20:41:12.211Z,4.63
2018-05-17T20:43:41.040Z,3.83
2018-05-17T20:46:11.687Z,5.13
2018-05-17T20:48:40.774Z,4.93
2018-05-17T20:51:09.603Z,4.97
2018-05-17T20:53:38.448Z,5.93
2018-05-17T20:56:07.279Z,4.90
2018-05-17T20:58:36.094Z,3.93
2018-05-17T21:01:04.930Z,5.90
2018-05-17T21:03:33.754Z,5.07
2018-05-17T21:06:02.595Z,6.30
2018-05-17T21:08:31.419Z,5.13
2018-05-17T21:11:00.243Z,4.33
2018-05-17T21:13:29.083Z,5.37
2018-05-17T21:15:58.194Z,4.20
2018-05-17T21:18:27.031Z,4.53
2018-05-17T21:20:55.898Z,5.70
2018-05-17T21:23:24.698Z,5.47
2018-05-17T21:25:53.543Z,5.53
2018-05-17T21:28:22.367Z,6.30
2018-05-17T21:30:51.290Z,5.80
2018-05-17T21:33:20.123Z,4.23
2018-05-17T21:35:48.946Z,5.87
2018-05-17T21:38:17.792Z,6.10
2018-05-17T21:40:46.894Z,7.00
2018-05-17T21:43:15.967Z,6.80
2018-05-17T21:45:45.089Z,5.50
2018-05-17T21:48:13.909Z,5.67
2018-05-17T21:50:43.071Z,5.20
2018-05-17T21:53:15.342Z,4.53
2018-05-17T21:55:52.571Z,4.50
2018-05-17T21:58:24.251Z,5.67
2018-05-17T22:00:54.250Z,5.60
2018-05-17T22:03:25.831Z,4.20
2018-05-17T22:05:53.308Z,4.60
2018-05-17T22:08:20.795Z,4.40
2018-05-17T22:10:48.271Z,3.67
2018-05-17T22:13:16.532Z,4.43
2018-05-17T22:15:44.247Z,3.80
2018-05-17T22:18:11.763Z,4.10
2018-05-17T22:20:40.388Z,4.63
2018-05-17T22:23:07.876Z,4.17
2018-05-17T22:25:35.372Z,4.40
2018-05-17T22:28:03.619Z,6.40
2018-05-17T22:30:31.100Z,5.20
2018-05-17T22:32:59.842Z,5.70
2018-05-17T22:35:27.316Z,6.80
2018-05-17T22:37:54.812Z,4.50
2018-05-17T22:40:23.323Z,5.03
2018-05-17T22:42:50.839Z,6.13
2018-05-17T22:45:19.096Z,5.27
2018-05-17T22:47:46.576Z,6.47
2018-05-17T22:50:15.251Z,5.20
2018-05-17T22:52:42.967Z,4.87
2018-05-17T22:55:11.643Z,5.47
2018-05-17T22:57:51.140Z,5.93
2018-05-17T23:00:20.171Z,6.23
2018-05-17T23:02:50.427Z,4.57
2018-05-17T23:05:18.768Z,5.50
2018-05-17T23:07:49.032Z,4.97
2018-05-17T23:10:20.254Z,4.00
2018-05-17T23:12:50.088Z,4.90
2018-05-17T23:15:20.083Z,4.33
2018-05-17T23:17:54.810Z,5.37
2018-05-17T23:20:29.167Z,3.90
2018-05-17T23:23:03.864Z,6.17
2018-05-17T23:25:38.630Z,6.00
2018-05-17T23:28:10.711Z,5.90
2018-05-17T23:30:43.179Z,5.00
2018-05-17T23:33:17.337Z,4.17
2018-05-17T23:35:53.758Z,5.40
2018-05-17T23:38:22.578Z,5.27
2018-05-17T23:41:12.558Z,5.07
2018-05-17T23:43:40.331Z,4.27
2018-05-17T23:46:08.096Z,4.13
2018-05-17T23:48:41.595Z,4.17
2018-05-17T23:51:26.931Z,3.10
2018-05-17T23:53:56.790Z,3.43
2018-05-17T23:56:25.611Z,3.93
2018-05-17T23:58:54.563Z,2.53
